Time;durP1;ratioP1;P1;durP2;ratioP2;P2;SDS_P1;SDS_P2;PMS_P1;PMS_P2;Temp;Humidity;BMP_temperature;BMP_pressure;BME280_temperature;BME280_humidity;BME280_pressure;Samples;Min_cycle;Max_cycle;Signal;HPM_P1;HPM_P2
2022/08/25 00:02:12;;;;;;;;;;;;;;;23.73;79.96;96808.66;531230;266;62969;-68
2022/08/25 00:04:40;;;;;;;;;;;;;;;23.73;79.96;96811.34;531139;267;66620;-67
2022/08/25 00:07:07;;;;;;;;;;;;;;;23.72;79.83;96805.18;531133;266;66638;-68
2022/08/25 00:09:35;;;;;;;;;;;;;;;23.73;79.85;96797.92;531195;266;65063;-68
2022/08/25 00:12:03;;;;;;;;;;;;;;;23.73;79.88;96805.97;531797;264;69312;-68
2022/08/25 00:14:32;;;;;;;;;;;;;;;23.72;79.98;96804.39;531190;264;68369;-68
2022/08/25 00:17:00;;;;;;;;;;;;;;;23.73;79.98;96805.97;531061;267;62880;-67
2022/08/25 00:19:30;;;;;;;;;;;;;;;23.72;79.97;96807.86;531238;266;68463;-67
2022/08/25 00:21:58;;;;;;;;;;;;;;;23.72;80.07;96802.50;531290;266;68559;-67
2022/08/25 00:24:26;;;;;;;;;;;;;;;23.72;80.03;96799.81;531196;266;62915;-67
2022/08/25 00:26:55;;;;;;;;;;;;;;;23.73;80.06;96797.92;531319;264;67306;-68
2022/08/25 00:29:24;;;;;;;;;;;;;;;23.72;79.99;96791.77;531150;266;68507;-69
2022/08/25 00:31:52;;;;;;;;;;;;;;;23.72;80.04;96790.97;531098;267;65235;-70
2022/08/25 00:34:22;;;;;;;;;;;;;;;23.71;80.08;96792.87;531119;267;66247;-70
2022/08/25 00:36:50;;;;;;;;;;;;;;;23.72;80.09;96793.66;531180;266;66481;-70
2022/08/25 00:39:19;;;;;;;;;;;;;;;23.72;80.06;96794.45;531372;264;66190;-70
2022/08/25 00:41:48;;;;;;;;;;;;;;;23.72;80.04;96793.66;531152;266;66577;-70
2022/08/25 00:44:18;;;;;;;;;;;;;;;23.72;79.94;96797.13;531136;266;69891;-70
2022/08/25 00:46:47;;;;;;;;;;;;;;;23.72;79.82;96796.34;531157;267;65041;-70
2022/08/25 00:49:23;;;;;;;;;;;;;;;23.71;79.73;96784.81;531198;264;68986;-70
2022/08/25 00:51:52;;;;;;;;;;;;;;;23.71;79.77;96792.87;531238;266;68638;-70
2022/08/25 00:54:21;;;;;;;;;;;;;;;23.70;79.71;96786.65;531147;266;66186;-70
2022/08/25 00:56:50;;;;;;;;;;;;;;;23.72;79.79;96793.66;530924;264;68782;-68
2022/08/25 00:59:20;;;;;;;;;;;;;;;23.71;79.79;96790.18;531136;266;68811;-68
2022/08/25 01:01:48;;;;;;;;;;;;;;;23.71;79.74;96784.81;531040;264;66026;-67
2022/08/25 01:04:16;;;;;;;;;;;;;;;23.72;79.83;96782.92;531780;264;68686;-68
2022/08/25 01:06:44;;;;;;;;;;;;;;;23.70;79.79;96783.97;531454;264;69327;-68
2022/08/25 01:09:16;;;;;;;;;;;;;;;23.70;79.74;96786.65;531076;264;63827;-67
2022/08/25 01:11:44;;;;;;;;;;;;;;;23.69;79.68;96787.75;531137;266;69889;-68
2022/08/25 01:14:13;;;;;;;;;;;;;;;23.72;79.73;96788.29;531140;262;68624;-68
2022/08/25 01:16:42;;;;;;;;;;;;;;;23.70;79.75;96777.81;531658;264;65209;-68
2022/08/25 01:19:11;;;;;;;;;;;;;;;23.69;79.72;96790.43;531247;264;66831;-67
2022/08/25 01:21:40;;;;;;;;;;;;;;;23.70;79.78;96778.59;531108;267;66707;-68
2022/08/25 01:24:09;;;;;;;;;;;;;;;23.70;79.66;96778.59;531311;266;66141;-67
2022/08/25 01:26:37;;;;;;;;;;;;;;;23.70;79.68;96775.13;531143;267;68970;-68
2022/08/25 01:29:24;;;;;;;;;;;;;;;23.70;79.67;96777.81;531240;264;68692;-68
2022/08/25 01:31:53;;;;;;;;;;;;;;;23.69;79.61;96774.34;531210;266;62953;-68
2022/08/25 01:34:21;;;;;;;;;;;;;;;23.69;79.61;96774.34;531156;266;68991;-67
2022/08/25 01:36:48;;;;;;;;;;;;;;;23.70;79.69;96777.81;531177;266;66555;-68
2022/08/25 01:39:16;;;;;;;;;;;;;;;23.70;79.70;96772.44;531153;267;62889;-68
2022/08/25 01:41:51;;;;;;;;;;;;;;;23.70;79.73;96773.23;531131;266;69706;-67
2022/08/25 01:44:18;;;;;;;;;;;;;;;23.69;79.74;96777.02;530970;264;68863;-68
2022/08/25 01:46:46;;;;;;;;;;;;;;;23.69;79.67;96770.86;531145;267;66237;-68
2022/08/25 01:49:13;;;;;;;;;;;;;;;23.69;79.66;96774.34;531289;264;69788;-68
2022/08/25 01:51:45;;;;;;;;;;;;;;;23.68;79.70;96762.02;531227;266;66308;-68
2022/08/25 01:54:13;;;;;;;;;;;;;;;23.68;79.71;96775.44;531141;267;63069;-68
2022/08/25 01:56:40;;;;;;;;;;;;;;;23.68;79.71;96767.39;531207;266;68775;-68
2022/08/25 01:59:08;;;;;;;;;;;;;;;23.68;79.72;96759.34;531083;267;69792;-68
2022/08/25 02:01:36;;;;;;;;;;;;;;;23.69;79.74;96760.13;531298;264;65041;-68
2022/08/25 02:04:04;;;;;;;;;;;;;;;23.69;79.70;96752.88;531122;266;68984;-68
2022/08/25 02:06:32;;;;;;;;;;;;;;;23.68;79.74;96748.61;531102;267;66563;-68
2022/08/25 02:09:07;;;;;;;;;;;;;;;23.68;79.77;96745.92;531516;264;65039;-70
2022/08/25 02:11:36;;;;;;;;;;;;;;;23.69;79.72;96749.40;531144;266;66590;-70
2022/08/25 02:14:04;;;;;;;;;;;;;;;23.69;79.77;96744.83;532156;264;69515;-70
2022/08/25 02:16:33;;;;;;;;;;;;;;;23.69;79.77;96741.34;535679;264;66283;-70
2022/08/25 02:19:01;;;;;;;;;;;;;;;23.68;79.74;96743.24;535612;265;67270;-71
2022/08/25 02:21:28;;;;;;;;;;;;;;;23.69;79.71;96750.19;535294;265;66568;-70
2022/08/25 02:23:56;;;;;;;;;;;;;;;23.68;79.69;96739.73;535616;265;62945;-70
2022/08/25 02:26:24;;;;;;;;;;;;;;;23.68;79.76;96737.88;535654;265;69251;-70
2022/08/25 02:28:51;;;;;;;;;;;;;;;23.67;79.69;96733.58;535223;265;68642;-70
2022/08/25 02:31:20;;;;;;;;;;;;;;;23.67;79.74;96730.90;535477;265;65560;-70
2022/08/25 02:33:48;;;;;;;;;;;;;;;23.68;79.74;96734.38;535603;265;68797;-70
2022/08/25 02:36:16;;;;;;;;;;;;;;;23.68;79.70;96731.69;535614;265;68557;-70
2022/08/25 02:38:43;;;;;;;;;;;;;;;23.68;79.70;96732.52;535579;265;65184;-67
2022/08/25 02:41:19;;;;;;;;;;;;;;;23.68;79.71;96732.52;535629;265;68907;-68
2022/08/25 02:43:47;;;;;;;;;;;;;;;23.68;79.73;96731.69;535620;265;66495;-68
2022/08/25 02:46:15;;;;;;;;;;;;;;;23.68;79.72;96729.01;535486;265;63755;-68
2022/08/25 02:48:44;;;;;;;;;;;;;;;23.67;79.73;96724.74;535461;265;66822;-68
2022/08/25 02:51:11;;;;;;;;;;;;;;;23.67;79.75;96728.22;535599;265;68645;-70
2022/08/25 02:53:39;;;;;;;;;;;;;;;23.68;79.79;96732.52;535621;265;65678;-70
2022/08/25 02:56:08;;;;;;;;;;;;;;;23.67;79.75;96730.90;535642;265;66624;-70
2022/08/25 02:58:37;;;;;;;;;;;;;;;23.68;79.72;96726.33;535450;265;68565;-70
2022/08/25 03:01:05;;;;;;;;;;;;;;;23.67;79.69;96736.27;535455;265;64025;-70
2022/08/25 03:03:33;;;;;;;;;;;;;;;23.67;79.69;96738.95;535468;265;68930;-70
2022/08/25 03:06:01;;;;;;;;;;;;;;;23.67;79.71;96730.11;535605;265;69297;-70
2022/08/25 03:08:28;;;;;;;;;;;;;;;23.67;79.70;96732.80;535646;264;63010;-68
2022/08/25 03:10:56;;;;;;;;;;;;;;;23.66;79.67;96732.00;535640;265;69709;-68
2022/08/25 03:13:23;;;;;;;;;;;;;;;23.67;79.63;96735.48;535524;265;66909;-68
2022/08/25 03:15:51;;;;;;;;;;;;;;;23.68;79.66;96734.38;531403;265;63821;-67
2022/08/25 03:18:18;;;;;;;;;;;;;;;23.67;79.64;96738.16;531149;266;69700;-68
2022/08/25 03:20:46;;;;;;;;;;;;;;;23.66;79.67;96745.42;531272;264;68803;-68
2022/08/25 03:23:13;;;;;;;;;;;;;;;23.65;79.68;96743.84;531253;264;65156;-67
2022/08/25 03:28:27;;;;;;;;;;;;;;;23.66;79.74;96749.98;531148;267;66677;-68
2022/08/25 03:30:54;;;;;;;;;;;;;;;23.66;79.78;96745.42;531205;266;65304;-69
2022/08/25 03:33:22;;;;;;;;;;;;;;;23.66;79.81;96745.42;531195;264;70341;-70
2022/08/25 03:35:50;;;;;;;;;;;;;;;23.65;79.86;96730.42;531137;266;66410;-70
2022/08/25 03:38:17;;;;;;;;;;;;;;;23.65;79.83;96738.47;531116;266;63966;-70
2022/08/25 03:40:45;;;;;;;;;;;;;;;23.64;79.84;96739.54;531251;264;69317;-70
2022/08/25 03:43:12;;;;;;;;;;;;;;;23.66;79.77;96741.94;531175;264;68656;-68
2022/08/25 03:45:43;;;;;;;;;;;;;;;23.65;79.81;96738.47;531185;267;65003;-68
2022/08/25 03:48:11;;;;;;;;;;;;;;;23.65;79.81;96738.47;531365;264;68961;-68
2022/08/25 03:50:40;;;;;;;;;;;;;;;23.65;79.74;96738.47;531156;267;66610;-68
2022/08/25 03:53:08;;;;;;;;;;;;;;;23.64;79.68;96747.59;531215;264;63880;-68
2022/08/25 03:55:35;;;;;;;;;;;;;;;23.65;79.59;96743.02;531178;266;68794;-68
2022/08/25 03:58:03;;;;;;;;;;;;;;;23.65;79.60;96746.52;531170;267;68373;-68
2022/08/25 04:00:30;;;;;;;;;;;;;;;23.64;79.59;96752.95;531111;267;66058;-68
2022/08/25 04:02:58;;;;;;;;;;;;;;;23.64;79.59;96750.27;531136;267;68795;-68
2022/08/25 04:05:25;;;;;;;;;;;;;;;23.65;79.55;96751.88;531432;264;68718;-68
2022/08/25 04:07:53;;;;;;;;;;;;;;;23.63;79.54;96754.06;531141;267;62937;-67
2022/08/25 04:10:20;;;;;;;;;;;;;;;23.64;79.52;96752.95;531403;264;68803;-68
2022/08/25 04:12:48;;;;;;;;;;;;;;;23.64;79.55;96750.27;531370;264;67625;-68
2022/08/25 04:15:16;;;;;;;;;;;;;;;23.64;79.57;96747.59;531358;262;62889;-67
2022/08/25 04:17:43;;;;;;;;;;;;;;;23.64;79.56;96741.44;531324;264;69807;-68
2022/08/25 04:20:11;;;;;;;;;;;;;;;23.64;79.61;96731.49;531409;264;65944;-67
2022/08/25 04:22:39;;;;;;;;;;;;;;;23.64;79.51;96736.86;531362;264;65155;-67
2022/08/25 04:25:07;;;;;;;;;;;;;;;23.63;79.47;96729.91;531156;266;68483;-67
2022/08/25 04:27:36;;;;;;;;;;;;;;;23.64;79.50;96736.86;531493;264;66735;-67
2022/08/25 04:30:04;;;;;;;;;;;;;;;23.64;79.56;96736.06;531068;266;65045;-67
2022/08/25 04:32:32;;;;;;;;;;;;;;;23.64;79.61;96730.70;531163;267;69420;-67
2022/08/25 04:34:59;;;;;;;;;;;;;;;23.62;79.61;96735.56;531110;266;68435;-67
2022/08/25 04:37:27;;;;;;;;;;;;;;;23.63;79.58;96737.17;530904;264;65028;-67
2022/08/25 04:39:54;;;;;;;;;;;;;;;23.63;79.58;96746.01;531010;264;68807;-67
2022/08/25 04:42:22;;;;;;;;;;;;;;;23.63;79.55;96740.64;531366;264;68756;-67
2022/08/25 04:44:49;;;;;;;;;;;;;;;23.64;79.57;96746.80;531191;266;62763;-67
2022/08/25 04:47:17;;;;;;;;;;;;;;;23.63;79.59;96743.33;531458;264;66455;-67
2022/08/25 04:49:44;;;;;;;;;;;;;;;23.62;79.58;96740.92;531257;264;66500;-67
2022/08/25 04:52:12;;;;;;;;;;;;;;;23.63;79.55;96746.01;531290;264;65455;-67
2022/08/25 04:54:40;;;;;;;;;;;;;;;23.62;79.56;96738.24;530981;266;70627;-67
2022/08/25 04:57:08;;;;;;;;;;;;;;;23.62;79.59;96739.03;531111;264;66496;-67
2022/08/25 04:59:35;;;;;;;;;;;;;;;23.63;79.55;96743.33;530942;266;62840;-67
2022/08/25 05:02:04;;;;;;;;;;;;;;;23.62;79.53;96739.03;530773;264;66386;-67
2022/08/25 05:04:32;;;;;;;;;;;;;;;23.62;79.46;96744.40;531071;264;68763;-67
2022/08/25 05:07:00;;;;;;;;;;;;;;;23.61;79.51;96748.18;531363;264;65171;-67
2022/08/25 05:09:29;;;;;;;;;;;;;;;23.63;79.50;96746.01;531417;264;66458;-69
2022/08/25 05:11:56;;;;;;;;;;;;;;;23.62;79.52;96744.40;531111;266;69000;-68
2022/08/25 05:14:24;;;;;;;;;;;;;;;23.61;79.54;96737.45;532276;264;65162;-67
2022/08/25 05:16:51;;;;;;;;;;;;;;;23.61;79.52;96742.81;534115;265;68821;-67
2022/08/25 05:19:19;;;;;;;;;;;;;;;23.62;79.52;96744.40;534064;265;66470;-67
2022/08/25 05:21:47;;;;;;;;;;;;;;;23.61;79.51;96745.50;534108;265;62950;-67
2022/08/25 05:24:14;;;;;;;;;;;;;;;23.61;79.57;96745.50;534048;265;66507;-67
2022/08/25 05:26:42;;;;;;;;;;;;;;;23.63;79.60;96740.64;534140;265;68837;-67
2022/08/25 05:29:10;;;;;;;;;;;;;;;23.61;79.55;96736.66;534112;265;64968;-69
2022/08/25 05:31:38;;;;;;;;;;;;;;;23.62;79.60;96739.03;534120;265;68802;-69
2022/08/25 05:34:06;;;;;;;;;;;;;;;23.61;79.60;96731.30;534071;265;66208;-69
2022/08/25 05:36:34;;;;;;;;;;;;;;;23.61;79.57;96737.45;534113;265;63133;-69
2022/08/25 05:39:02;;;;;;;;;;;;;;;23.61;79.55;96737.45;534168;265;66890;-69
2022/08/25 05:41:30;;;;;;;;;;;;;;;23.61;79.61;96737.45;534179;265;68917;-69
2022/08/25 05:43:58;;;;;;;;;;;;;;;23.60;79.70;96735.88;534166;265;65308;-70
2022/08/25 05:46:26;;;;;;;;;;;;;;;23.61;79.82;96744.70;533936;265;68923;-67
2022/08/25 05:48:53;;;;;;;;;;;;;;;23.60;79.90;96730.50;534015;265;68668;-68
2022/08/25 05:51:21;;;;;;;;;;;;;;;23.62;79.97;96743.61;534030;265;63049;-69
2022/08/25 05:53:51;;;;;;;;;;;;;;;23.61;79.98;96748.18;534146;265;68623;-70
2022/08/25 05:56:19;;;;;;;;;;;;;;;23.61;80.08;96742.81;533924;265;68797;-70
2022/08/25 05:58:46;;;;;;;;;;;;;;;23.61;80.10;96745.50;534085;265;65038;-68
2022/08/25 06:04:13;;;;;;;;;;;;;;;23.61;79.29;96750.08;523489;270;68612;-67
2022/08/25 06:06:41;;;;;;;;;;;;;;;23.60;79.62;96743.09;530120;265;65311;-68
2022/08/25 06:09:09;;;;;;;;;;;;;;;23.61;79.51;96750.08;534105;265;66772;-67
2022/08/25 06:11:38;;;;;;;;;;;;;;;23.60;78.24;96745.78;529571;265;68758;-67
2022/08/25 06:14:07;;;;;;;;;;;;;;;23.59;78.37;96744.98;533500;265;65152;-67
2022/08/25 06:16:34;;;;;;;;;;;;;;;23.58;77.50;96743.41;531122;264;66637;-68
2022/08/25 06:19:02;;;;;;;;;;;;;;;23.58;77.54;96745.30;531045;267;66549;-70
2022/08/25 06:21:31;;;;;;;;;;;;;;;23.59;78.09;96746.88;531140;267;46315;-69
2022/08/25 06:23:59;;;;;;;;;;;;;;;23.59;78.11;96749.56;531140;267;69998;-69
2022/08/25 06:26:28;;;;;;;;;;;;;;;23.59;78.05;96747.67;531178;264;66739;-68
2022/08/25 06:28:57;;;;;;;;;;;;;;;23.59;77.99;96742.30;531201;266;65125;-68
2022/08/25 06:31:24;;;;;;;;;;;;;;;23.60;78.04;96740.41;531107;267;68741;-68
2022/08/25 06:33:52;;;;;;;;;;;;;;;23.59;77.73;96744.98;531493;264;68800;-71
2022/08/25 06:36:20;;;;;;;;;;;;;;;23.60;77.69;96741.23;530982;267;65873;-67
2022/08/25 06:38:47;;;;;;;;;;;;;;;23.61;76.55;96740.13;531228;264;66589;-67
2022/08/25 06:41:15;;;;;;;;;;;;;;;23.63;78.58;96748.69;531127;267;68753;-68
2022/08/25 06:43:44;;;;;;;;;;;;;;;23.64;78.91;96742.22;530376;265;65379;-68
2022/08/25 06:46:13;;;;;;;;;;;;;;;23.64;79.12;96742.22;528640;268;68964;-67
2022/08/25 06:48:41;;;;;;;;;;;;;;;23.65;79.41;96740.33;528477;268;66190;-68
2022/08/25 06:51:12;;;;;;;;;;;;;;;23.64;79.61;96739.54;528170;268;47718;-68
2022/08/25 06:53:42;;;;;;;;;;;;;;;23.65;79.81;96743.84;528574;268;69072;-68
2022/08/25 06:56:10;;;;;;;;;;;;;;;23.66;79.88;96744.63;528500;268;69041;-67
2022/08/25 06:58:38;;;;;;;;;;;;;;;23.65;79.94;96743.84;528498;268;62828;-69
2022/08/25 07:01:13;;;;;;;;;;;;;;;23.67;79.99;96751.57;528561;268;68744;-69
2022/08/25 07:03:41;;;;;;;;;;;;;;;23.66;79.97;96741.94;528476;268;69036;-68
2022/08/25 07:06:09;;;;;;;;;;;;;;;23.67;79.99;96748.89;528559;268;65110;-72
2022/08/25 07:08:37;;;;;;;;;;;;;;;23.66;79.98;96745.42;528508;268;66458;-73
2022/08/25 07:11:05;;;;;;;;;;;;;;;23.66;80.01;96742.73;528472;268;68676;-68
2022/08/25 07:13:33;;;;;;;;;;;;;;;23.69;76.69;96738.67;528613;268;65135;-65
2022/08/25 07:16:01;;;;;;;;;;;;;;;23.71;79.20;96741.89;533704;265;66070;-64
2022/08/25 07:18:28;;;;;;;;;;;;;;;23.69;79.87;96731.41;533869;265;66547;-64
2022/08/25 07:20:56;;;;;;;;;;;;;;;23.70;79.93;96734.88;533845;265;63563;-64
2022/08/25 07:23:25;;;;;;;;;;;;;;;23.69;80.05;96733.30;533905;265;69195;-65
2022/08/25 07:25:53;;;;;;;;;;;;;;;23.69;79.30;96728.73;533914;264;68700;-66
2022/08/25 07:28:23;;;;;;;;;;;;;;;23.69;79.94;96734.09;533895;265;63051;-63
2022/08/25 07:30:50;;;;;;;;;;;;;;;23.69;80.30;96734.09;533916;265;68970;-63
2022/08/25 07:33:18;;;;;;;;;;;;;;;23.69;80.30;96727.94;533864;265;68758;-65
2022/08/25 07:35:45;;;;;;;;;;;;;;;23.70;79.23;96735.67;533937;265;64990;-66
2022/08/25 07:38:13;;;;;;;;;;;;;;;23.70;79.94;96735.67;533958;265;68825;-63
2022/08/25 07:40:40;;;;;;;;;;;;;;;23.70;80.01;96735.67;533831;265;68657;-67
2022/08/25 07:43:09;;;;;;;;;;;;;;;23.70;79.94;96741.04;533843;265;62751;-67
2022/08/25 07:45:38;;;;;;;;;;;;;;;23.69;79.98;96736.77;533896;265;68954;-67
2022/08/25 07:48:08;;;;;;;;;;;;;;;23.70;80.00;96740.25;533843;265;68730;-68
2022/08/25 07:50:42;;;;;;;;;;;;;;;23.70;80.06;96741.04;533902;265;65113;-67
2022/08/25 07:53:06;;;;;;;;;;;;;;;23.70;80.02;96746.41;533694;265;69139;-67
2022/08/25 07:55:40;;;;;;;;;;;;;;;23.70;80.05;96750.98;533873;265;67498;-67
2022/08/25 07:58:05;;;;;;;;;;;;;;;23.69;80.05;96750.19;533682;265;62921;-68
2022/08/25 08:00:35;;;;;;;;;;;;;;;23.70;80.11;96743.72;533856;265;66498;-68
2022/08/25 08:03:06;;;;;;;;;;;;;;;23.70;80.04;96742.93;534054;264;66371;-70
2022/08/25 08:05:35;;;;;;;;;;;;;;;23.70;80.06;96746.41;533808;264;62793;-65
2022/08/25 08:08:03;;;;;;;;;;;;;;;23.70;80.00;96754.45;533880;265;68836;-67
2022/08/25 08:10:31;;;;;;;;;;;;;;;23.70;79.98;96750.98;533853;265;69076;-68
2022/08/25 08:12:58;;;;;;;;;;;;;;;23.69;79.98;96747.50;533887;265;62937;-63
2022/08/25 08:15:26;;;;;;;;;;;;;;;23.69;79.96;96752.88;533830;265;68746;-67
2022/08/25 08:17:53;;;;;;;;;;;;;;;23.69;80.02;96747.50;533980;265;68693;-67
2022/08/25 08:20:21;;;;;;;;;;;;;;;23.71;80.05;96744.57;533957;265;64928;-67
2022/08/25 08:22:48;;;;;;;;;;;;;;;23.70;79.96;96751.77;533842;265;66521;-66
2022/08/25 08:25:16;;;;;;;;;;;;;;;23.69;80.07;96739.45;533910;265;66400;-68
2022/08/25 08:27:45;;;;;;;;;;;;;;;23.72;80.16;96737.31;533894;265;65331;-68
2022/08/25 08:30:13;;;;;;;;;;;;;;;23.71;80.03;96736.52;533904;265;68331;-69
2022/08/25 08:32:40;;;;;;;;;;;;;;;23.71;80.01;96733.84;533945;264;68629;-68
2022/08/25 08:35:11;;;;;;;;;;;;;;;23.70;80.01;96730.31;533849;265;65039;-68
2022/08/25 08:37:40;;;;;;;;;;;;;;;23.71;80.01;96733.84;533862;265;68969;-68
2022/08/25 08:40:08;;;;;;;;;;;;;;;23.70;79.96;96735.67;533938;265;66334;-68
2022/08/25 08:42:41;;;;;;;;;;;;;;;23.72;79.93;96742.68;533931;264;65088;-68
2022/08/25 08:45:27;;;;;;;;;;;;;;;23.72;79.93;96742.68;533833;265;68676;-68
2022/08/25 08:48:09;;;;;;;;;;;;;;;23.72;79.96;96740.00;534002;265;68842;-68
2022/08/25 08:50:54;;;;;;;;;;;;;;;23.71;79.94;96741.89;526518;265;62837;-68
2022/08/25 08:53:23;;;;;;;;;;;;;;;23.71;79.91;96741.89;533891;265;66853;-68
2022/08/25 08:56:01;;;;;;;;;;;;;;;23.70;79.87;96741.04;533572;265;66553;-68
2022/08/25 08:58:30;;;;;;;;;;;;;;;23.70;79.86;96746.41;532897;264;65363;-67
2022/08/25 09:00:58;;;;;;;;;;;;;;;23.70;79.89;96741.04;533481;264;68911;-67
2022/08/25 09:03:30;;;;;;;;;;;;;;;23.70;79.95;96749.09;533823;265;69044;-67
2022/08/25 09:05:59;;;;;;;;;;;;;;;23.70;79.87;96741.04;533888;265;62822;-67
2022/08/25 09:08:26;;;;;;;;;;;;;;;23.70;79.83;96743.72;533795;265;66442;-67
2022/08/25 09:11:02;;;;;;;;;;;;;;;23.70;79.87;96734.88;533809;265;66523;-67
2022/08/25 09:13:31;;;;;;;;;;;;;;;23.70;79.80;96735.67;533761;265;65264;-67
2022/08/25 09:19:11;;;;;;;;;;;;;;;23.72;79.75;96740.00;533719;265;68548;-69
2022/08/25 09:21:40;;;;;;;;;;;;;;;23.72;79.67;96729.27;533602;265;66190;-68
2022/08/25 09:24:13;;;;;;;;;;;;;;;23.70;79.77;96719.58;533901;264;68763;-68
2022/08/25 09:27:01;;;;;;;;;;;;;;;23.71;79.79;96725.80;533842;265;66746;-66
2022/08/25 09:29:30;;;;;;;;;;;;;;;23.71;79.90;96717.74;533942;265;63160;-69
2022/08/25 09:31:59;;;;;;;;;;;;;;;23.71;79.85;96715.06;533806;265;68746;-68
2022/08/25 09:34:28;;;;;;;;;;;;;;;23.70;79.94;96719.58;533161;265;66406;-68
2022/08/25 09:36:56;;;;;;;;;;;;;;;23.72;79.92;96710.48;534013;265;65397;-68
2022/08/25 09:39:23;;;;;;;;;;;;;;;23.70;79.80;96703.48;534113;265;66351;-68
2022/08/25 09:41:55;;;;;;;;;;;;;;;23.70;79.76;96703.48;533993;265;66689;-68
2022/08/25 09:44:24;;;;;;;;;;;;;;;23.71;79.81;96693.59;534048;265;62904;-69
2022/08/25 09:47:00;;;;;;;;;;;;;;;23.70;79.70;96698.11;534092;265;67302;-68
2022/08/25 09:49:27;;;;;;;;;;;;;;;23.72;79.56;96697.07;533936;265;68746;-67
2022/08/25 09:51:56;;;;;;;;;;;;;;;23.72;79.60;96687.13;534002;265;65025;-68
2022/08/25 09:54:25;;;;;;;;;;;;;;;23.73;79.66;96695.97;534086;265;66890;-68
2022/08/25 09:56:54;;;;;;;;;;;;;;;23.72;79.67;96689.02;534072;265;66464;-68
2022/08/25 09:59:23;;;;;;;;;;;;;;;23.72;79.69;96689.81;534070;265;62843;-68
2022/08/25 10:01:52;;;;;;;;;;;;;;;23.72;79.66;96680.97;534042;265;68751;-68
2022/08/25 10:04:26;;;;;;;;;;;;;;;23.72;79.57;96673.72;534067;265;68767;-68
2022/08/25 10:06:54;;;;;;;;;;;;;;;23.72;79.68;96664.88;534049;265;65173;-66
2022/08/25 10:09:23;;;;;;;;;;;;;;;23.73;79.65;96666.45;534066;265;66681;-68
2022/08/25 10:11:51;;;;;;;;;;;;;;;23.73;79.71;96661.09;534016;265;68540;-67
2022/08/25 10:14:27;;;;;;;;;;;;;;;23.72;79.63;96662.19;533264;262;62966;-68
2022/08/25 10:16:56;;;;;;;;;;;;;;;23.74;79.65;96662.70;531158;264;71345;-68
2022/08/25 10:19:25;;;;;;;;;;;;;;;23.73;76.46;96661.88;530602;267;68613;-68
2022/08/25 10:21:54;;;;;;;;;;;;;;;23.75;78.73;96657.02;531588;264;65831;-68
2022/08/25 10:24:22;;;;;;;;;;;;;;;23.75;79.53;96656.23;530573;266;68768;-68
2022/08/25 10:26:57;;;;;;;;;;;;;;;23.75;79.77;96657.02;531092;266;68494;-67
2022/08/25 10:29:35;;;;;;;;;;;;;;;23.75;79.73;96653.55;531152;266;65283;-67
2022/08/25 10:32:04;;;;;;;;;;;;;;;23.74;79.91;96643.92;530444;267;66559;-69
2022/08/25 10:34:35;;;;;;;;;;;;;;;23.74;79.89;96651.97;531569;264;68556;-69
2022/08/25 10:37:08;;;;;;;;;;;;;;;23.74;79.78;96649.28;531088;264;62864;-68
2022/08/25 10:39:37;;;;;;;;;;;;;;;23.74;79.63;96649.28;530927;267;68946;-68
2022/08/25 10:42:06;;;;;;;;;;;;;;;23.74;79.73;96642.02;531030;266;68900;-68
2022/08/25 10:47:43;;;;;;;;;;;;;;;23.75;79.72;96645.50;531080;267;68845;-67
2022/08/25 10:50:15;;;;;;;;;;;;;;;23.75;79.65;96645.50;531101;267;66835;-67
2022/08/25 10:52:59;;;;;;;;;;;;;;;23.76;78.16;96639.03;531381;264;66054;-67
2022/08/25 10:55:34;;;;;;;;;;;;;;;23.76;79.49;96639.03;531072;266;69949;-67
2022/08/25 10:58:21;;;;;;;;;;;;;;;23.75;78.48;96640.92;531384;264;68633;-68
2022/08/25 11:00:55;;;;;;;;;;;;;;;23.76;79.30;96636.34;531058;264;65201;-68
2022/08/25 11:03:36;;;;;;;;;;;;;;;23.76;79.52;96641.70;531668;264;65881;-68
2022/08/25 11:06:08;;;;;;;;;;;;;;;23.75;79.52;96640.92;531062;264;50971;-69
2022/08/25 11:08:37;;;;;;;;;;;;;;;23.74;79.62;96642.02;531112;264;65455;-68
2022/08/25 11:11:08;;;;;;;;;;;;;;;23.74;79.56;96642.02;531385;264;69097;-69
2022/08/25 11:13:39;;;;;;;;;;;;;;;23.74;79.54;96642.02;531053;266;69489;-68
2022/08/25 11:16:10;;;;;;;;;;;;;;;23.73;79.48;96637.73;531216;264;65105;-69
2022/08/25 11:18:39;;;;;;;;;;;;;;;23.74;79.37;96636.66;530724;264;68775;-69
2022/08/25 11:21:14;;;;;;;;;;;;;;;23.74;79.29;96638.55;530974;266;68562;-69
2022/08/25 11:23:43;;;;;;;;;;;;;;;23.74;79.22;96639.34;531056;264;62862;-68
2022/08/25 11:26:11;;;;;;;;;;;;;;;23.74;79.15;96638.55;531062;264;68808;-68
2022/08/25 11:28:53;;;;;;;;;;;;;;;23.74;79.19;96644.70;531138;266;66542;-66
2022/08/25 11:31:21;;;;;;;;;;;;;;;23.75;79.12;96640.13;531026;267;65144;-67
2022/08/25 11:33:49;;;;;;;;;;;;;;;23.75;79.26;96645.50;531015;267;66763;-68
2022/08/25 11:36:30;;;;;;;;;;;;;;;23.75;79.25;96642.81;530960;266;68819;-67
2022/08/25 11:39:00;;;;;;;;;;;;;;;23.75;79.36;96640.92;531055;264;65235;-67
2022/08/25 11:41:29;;;;;;;;;;;;;;;23.75;79.46;96642.81;531065;266;69058;-68
2022/08/25 11:44:14;;;;;;;;;;;;;;;23.75;79.34;96648.18;530405;266;68948;-68
2022/08/25 11:46:50;;;;;;;;;;;;;;;23.75;79.52;96637.45;531023;267;62805;-68
2022/08/25 11:49:22;;;;;;;;;;;;;;;23.75;79.54;96640.92;530754;266;66591;-67
2022/08/25 11:51:51;;;;;;;;;;;;;;;23.75;79.59;96637.45;531227;264;67299;-67
2022/08/25 11:54:19;;;;;;;;;;;;;;;23.75;79.51;96640.92;530984;267;64978;-67
2022/08/25 11:56:52;;;;;;;;;;;;;;;23.76;79.49;96630.98;530737;266;66999;-67
2022/08/25 11:59:37;;;;;;;;;;;;;;;23.75;79.52;96630.19;530924;267;69083;-68
2022/08/25 12:02:05;;;;;;;;;;;;;;;23.76;79.63;96614.88;531093;267;63812;-68
2022/08/25 12:04:38;;;;;;;;;;;;;;;23.76;79.63;96622.92;531025;267;68777;-68
2022/08/25 12:07:12;;;;;;;;;;;;;;;23.75;79.67;96615.98;531090;266;69577;-66
2022/08/25 12:09:50;;;;;;;;;;;;;;;23.76;79.62;96626.40;531308;264;65889;-67
2022/08/25 12:12:28;;;;;;;;;;;;;;;23.77;79.60;96621.85;531139;264;66551;-68
2022/08/25 12:14:55;;;;;;;;;;;;;;;23.77;79.73;96619.17;531067;265;68775;-68
2022/08/25 12:17:24;;;;;;;;;;;;;;;23.76;79.68;96630.98;531339;264;66539;-68
2022/08/25 12:19:53;;;;;;;;;;;;;;;23.77;76.50;96628.01;530549;267;66208;-68
2022/08/25 12:22:22;;;;;;;;;;;;;;;23.78;76.48;96623.43;531310;264;68534;-69
2022/08/25 12:25:10;;;;;;;;;;;;;;;23.80;78.39;96621.25;531092;267;64972;-68
2022/08/25 12:27:37;;;;;;;;;;;;;;;23.79;78.88;96616.96;530738;264;68768;-67
2022/08/25 12:30:06;;;;;;;;;;;;;;;23.78;79.20;96618.86;531065;264;66511;-67
2022/08/25 12:32:47;;;;;;;;;;;;;;;23.79;79.25;96625.02;530865;267;62882;-67
2022/08/25 12:35:25;;;;;;;;;;;;;;;23.78;79.35;96634.16;530837;267;69072;-68
2022/08/25 12:37:54;;;;;;;;;;;;;;;23.78;79.37;96623.43;531168;264;66841;-68
2022/08/25 12:40:25;;;;;;;;;;;;;;;23.77;79.25;96622.64;530919;264;65375;-68
2022/08/25 12:42:54;;;;;;;;;;;;;;;23.78;79.29;96629.59;527939;267;66257;-68
2022/08/25 12:45:24;;;;;;;;;;;;;;;23.78;79.38;96626.12;530773;267;68512;-69
2022/08/25 12:47:53;;;;;;;;;;;;;;;23.78;79.26;96626.12;531537;264;62879;-66
2022/08/25 12:50:40;;;;;;;;;;;;;;;23.78;79.41;96620.75;531116;266;66167;-70
2022/08/25 12:53:12;;;;;;;;;;;;;;;23.78;79.30;96620.75;531072;264;68565;-68
2022/08/25 12:55:41;;;;;;;;;;;;;;;23.79;79.42;96625.02;531053;264;65259;-69
2022/08/25 12:58:09;;;;;;;;;;;;;;;23.79;77.63;96619.64;531434;264;68373;-69
2022/08/25 13:00:38;;;;;;;;;;;;;;;23.80;77.33;96622.05;531018;267;68562;-70
2022/08/25 13:03:23;;;;;;;;;;;;;;;23.80;78.68;96618.57;530789;267;65201;-69
2022/08/25 13:05:52;;;;;;;;;;;;;;;23.80;79.19;96607.84;531058;266;66485;-68
2022/08/25 13:08:22;;;;;;;;;;;;;;;23.79;79.29;96608.91;531020;267;68856;-68
2022/08/25 13:10:57;;;;;;;;;;;;;;;23.79;79.32;96606.23;531088;267;65014;-68
2022/08/25 13:13:38;;;;;;;;;;;;;;;23.78;79.13;96601.97;531122;266;68998;-69